Main page
METAR-TAF:

METAR-TAF

Airports :

Colmenar Viejo, Spain

latitude: 40-39N, longitude: 003-44W, elevation: -999 m

Current weather observation

The report was made 13 hours and 10 minutes ago, at 18:00 UTC
Wind 1 kt from variable directions
Temperature 10°C
Humidity 46%
Pressure 1021 hPa
Visibility 10 km or more
no clouds below 1500 m and no cumulonimbus

METAR: LECV 211800Z VRB01KT CAVOK 10/M01 Q1021

Time: 08:10 (07:10 UTC)

Forecast

The report was made 2 hours and 10 minutes ago, at 05:00 UTC
Forecast valid from 22 at 06 UTC to 22 at 15 UTC
Wind 5 kt from variable directions
Visibility 10 km or more
no clouds below 1500 m and no cumulonimbus

TAF: LECV 220500Z 2206/2215 VRB05KT CAVOK

Weather observations and forecasts of more than 4000 airports (METAR and TAF reports).

The available stations are represented by yellow and red dots on the map.

Hover mouse over dot to see the name of the station.

Then click to see weather observations and forecasts.

To change the map : click on the green buttons with a black cross to zoom in, on the green button with a dash to zoom out, or on the green arrows for adjacent maps.


METAR-TAF: